Time;durP1;ratioP1;P1;durP2;ratioP2;P2;SDS_P1;SDS_P2;PMS_P1;PMS_P2;Temp;Humidity;BMP_temperature;BMP_pressure;BME280_temperature;BME280_humidity;BME280_pressure;Samples;Min_cycle;Max_cycle;Signal;HPM_P1;HPM_P2
2022/04/06 01:22:01;;;;;;;7.22;4.03;;;;;;;5.07;100.00;93936.88;5568726;22;20674;-87
2022/04/06 01:24:27;;;;;;;9.07;4.72;;;;;;;4.94;100.00;93940.63;5005429;28;20041;-87
2022/04/06 01:26:53;;;;;;;10.50;5.20;;;;;;;5.01;100.00;93937.06;5005418;28;20454;-87
2022/04/06 01:29:19;;;;;;;9.75;4.72;;;;;;;5.00;100.00;93933.69;4990814;28;20040;-88
2022/04/06 01:31:44;;;;;;;7.75;4.53;;;;;;;5.12;100.00;93936.16;4991227;28;20030;-87
2022/04/06 01:34:32;;;;;;;13.13;4.57;;;;;;;5.15;100.00;93930.47;5033020;28;20029;-87
2022/04/06 01:36:57;;;;;;;8.50;4.50;;;;;;;5.24;100.00;93929.00;5046967;28;20017;-87
2022/04/06 01:39:27;;;;;;;11.45;4.60;;;;;;;5.25;100.00;93929.81;5033540;28;20025;-89
2022/04/06 01:41:52;;;;;;;8.88;4.47;;;;;;;5.33;100.00;93928.59;5015086;28;20029;-88
2022/04/06 01:44:17;;;;;;;8.02;4.65;;;;;;;5.52;100.00;93929.00;5032097;28;20040;-87
2022/04/06 01:46:43;;;;;;;9.95;5.05;;;;;;;5.81;100.00;93915.78;5030967;28;20032;-87
2022/04/06 01:52:12;;;;;;;11.85;5.20;;;;;;;5.58;100.00;93914.25;5057758;28;20052;-88
2022/04/06 01:54:42;;;;;;;8.77;4.05;;;;;;;5.82;100.00;93914.72;5043612;28;20031;-87
2022/04/06 01:57:07;;;;;;;6.53;3.95;;;;;;;5.53;100.00;93907.22;5040935;28;20075;-87
2022/04/06 01:59:33;;;;;;;8.43;4.57;;;;;;;5.43;100.00;93910.47;5040878;28;20024;-87
2022/04/06 02:01:59;;;;;;;8.80;4.00;;;;;;;5.48;100.00;93904.56;5040841;28;20025;-87
2022/04/06 02:04:24;;;;;;;12.68;4.55;;;;;;;5.48;100.00;93904.56;5040114;28;20035;-86
2022/04/06 02:06:50;;;;;;;10.52;4.90;;;;;;;5.64;100.00;93900.28;5023720;28;20034;-87
2022/04/06 02:09:16;;;;;;;9.18;4.68;;;;;;;5.61;100.00;93906.75;5024210;28;20036;-86
2022/04/06 02:11:42;;;;;;;8.95;4.75;;;;;;;5.50;100.00;93910.28;5024105;28;20052;-87
2022/04/06 02:14:08;;;;;;;8.73;4.50;;;;;;;5.42;100.00;93908.91;5040566;28;20359;-86
2022/04/06 02:16:34;;;;;;;9.93;5.18;;;;;;;5.41;100.00;93912.53;5023861;28;20059;-88
2022/04/06 02:19:00;;;;;;;11.88;5.82;;;;;;;5.45;100.00;93905.84;5040640;28;20032;-87
2022/04/06 02:21:25;;;;;;;10.85;5.13;;;;;;;5.45;100.00;93908.44;5024046;28;20033;-87
2022/04/06 02:23:51;;;;;;;9.90;4.85;;;;;;;5.42;100.00;93903.72;5024092;28;20052;-86
2022/04/06 02:26:16;;;;;;;11.90;5.53;;;;;;;5.50;100.00;93899.88;5039700;28;20021;-87
2022/04/06 02:28:41;;;;;;;13.00;5.15;;;;;;;5.77;100.00;93910.28;5023648;28;20020;-87
2022/04/06 02:31:07;;;;;;;8.75;4.93;;;;;;;5.78;100.00;93904.03;5040189;28;20027;-87
2022/04/06 02:33:34;;;;;;;11.05;5.75;;;;;;;5.73;100.00;93909.19;5023568;28;20036;-87
2022/04/06 02:36:00;;;;;;;10.75;5.68;;;;;;;5.79;100.00;93903.00;5024049;28;20031;-87
2022/04/06 02:38:26;;;;;;;9.13;4.80;;;;;;;5.79;100.00;93897.00;5040113;28;20436;-86
2022/04/06 02:40:52;;;;;;;13.77;5.53;;;;;;;5.70;100.00;93903.72;5057533;28;20025;-87
2022/04/06 02:43:18;;;;;;;12.88;5.40;;;;;;;5.62;100.00;93894.56;5057523;28;20421;-86
2022/04/06 02:45:43;;;;;;;11.82;5.68;;;;;;;5.58;100.00;93890.84;5038538;28;20068;-87
2022/04/06 02:48:09;;;;;;;12.68;5.25;;;;;;;5.52;100.00;93893.41;5023295;28;20029;-87
2022/04/06 02:50:35;;;;;;;10.82;5.32;;;;;;;5.37;100.00;93890.69;5039954;28;20021;-87
2022/04/06 02:53:01;;;;;;;9.90;5.03;;;;;;;5.33;100.00;93887.78;5039701;28;20326;-86
2022/04/06 02:55:26;;;;;;;9.15;4.82;;;;;;;5.19;100.00;93882.22;5039562;28;20031;-87
2022/04/06 02:57:52;;;;;;;10.30;4.25;;;;;;;5.10;100.00;93875.88;5039056;28;20044;-87
2022/04/06 03:00:18;;;;;;;8.25;3.67;;;;;;;5.09;100.00;93875.13;5039413;28;20364;-87
2022/04/06 03:02:44;;;;;;;8.10;4.15;;;;;;;5.12;100.00;93873.81;5022557;28;20036;-87
2022/04/06 03:05:09;;;;;;;9.02;3.92;;;;;;;5.06;100.00;93874.81;5039709;28;20020;-87
2022/04/06 03:07:35;;;;;;;6.40;3.72;;;;;;;5.00;100.00;93876.56;5043203;28;20048;-87
2022/04/06 03:10:01;;;;;;;8.15;4.18;;;;;;;4.85;100.00;93873.81;5029341;28;20032;-88
2022/04/06 03:12:28;;;;;;;9.75;4.05;;;;;;;4.69;100.00;93878.03;5031607;28;20082;-87
2022/04/06 03:14:56;;;;;;;10.10;4.32;;;;;;;4.60;100.00;93875.88;5057229;28;20028;-87
2022/04/06 03:17:22;;;;;;;7.97;4.10;;;;;;;4.62;100.00;93881.59;5056387;28;20078;-87
2022/04/06 03:19:47;;;;;;;8.65;4.50;;;;;;;4.67;100.00;93876.47;5039419;28;20020;-88
2022/04/06 03:22:17;;;;;;;11.18;4.38;;;;;;;4.87;100.00;93874.34;5022482;28;20063;-87
2022/04/06 03:24:43;;;;;;;5.80;3.40;;;;;;;4.95;100.00;93881.72;5040166;28;20457;-88
2022/04/06 03:27:09;;;;;;;9.90;4.35;;;;;;;4.81;100.00;93869.13;5039324;28;20052;-88
2022/04/06 03:29:34;;;;;;;8.82;3.45;;;;;;;4.76;100.00;93870.88;5022740;28;20033;-86
2022/04/06 03:32:00;;;;;;;7.72;3.85;;;;;;;4.77;100.00;93872.44;5022692;28;20024;-87
2022/04/06 03:34:26;;;;;;;9.30;4.53;;;;;;;4.88;100.00;93866.31;5023024;28;20060;-87
2022/04/06 03:36:51;;;;;;;10.82;5.13;;;;;;;4.94;100.00;93870.53;5039407;28;20032;-87
2022/04/06 03:39:17;;;;;;;12.10;4.95;;;;;;;5.02;100.00;93853.72;5056982;28;20333;-87
2022/04/06 03:41:43;;;;;;;9.93;4.65;;;;;;;5.12;100.00;93858.25;5056532;28;20020;-87
2022/04/06 03:45:04;;;;;;;9.60;3.78;;;;;;;5.20;100.00;93859.63;5039428;28;20082;-87
2022/04/06 03:47:31;;;;;;;10.60;4.88;;;;;;;5.18;100.00;93857.28;5038963;28;20033;-87
2022/04/06 03:49:56;;;;;;;13.45;4.97;;;;;;;4.93;100.00;93861.19;5039251;28;20029;-87
2022/04/06 03:52:22;;;;;;;8.05;4.00;;;;;;;4.62;100.00;93862.63;5022541;28;20033;-87
2022/04/06 03:54:47;;;;;;;10.48;4.07;;;;;;;4.42;100.00;93861.38;5039065;28;20054;-87
2022/04/06 03:57:13;;;;;;;8.50;4.28;;;;;;;4.39;100.00;93857.44;5022671;28;20119;-87
2022/04/06 03:59:39;;;;;;;10.15;4.25;;;;;;;4.53;100.00;93860.50;5038290;28;20064;-87
2022/04/06 04:02:04;;;;;;;8.98;3.42;;;;;;;4.57;100.00;93854.81;5038584;28;20032;-87
2022/04/06 04:04:30;;;;;;;12.52;4.40;;;;;;;4.64;100.00;93858.00;5038848;28;20033;-87
2022/04/06 04:06:55;;;;;;;10.32;4.25;;;;;;;4.77;100.00;93854.25;5021528;28;20037;-86
2022/04/06 04:09:21;;;;;;;6.68;3.60;;;;;;;4.74;100.00;93852.94;5038663;28;20025;-87
2022/04/06 04:11:46;;;;;;;8.55;4.07;;;;;;;4.73;100.00;93840.97;5038484;28;20059;-87
2022/04/06 04:14:12;;;;;;;6.88;4.10;;;;;;;4.65;100.00;93854.38;5041900;28;20029;-87
2022/04/06 04:16:37;;;;;;;7.38;3.85;;;;;;;4.60;100.00;93857.72;5043040;28;20389;-86
2022/04/06 04:19:02;;;;;;;7.10;3.67;;;;;;;4.58;100.00;93857.16;5026153;28;20028;-87
2022/04/06 04:21:34;;;;;;;8.50;4.30;;;;;;;4.62;100.00;93847.88;5041961;28;20098;-86
2022/04/06 04:24:00;;;;;;;8.50;3.70;;;;;;;4.62;100.00;93850.47;5043183;28;20033;-87
2022/04/06 04:26:26;;;;;;;6.15;3.40;;;;;;;4.52;100.00;93845.16;5025805;28;20090;-87
2022/04/06 04:28:51;;;;;;;8.13;4.18;;;;;;;4.49;100.00;93846.41;5042811;28;20024;-87
2022/04/06 04:31:17;;;;;;;9.88;4.88;;;;;;;4.61;100.00;93848.91;5026186;28;20028;-87
2022/04/06 04:33:43;;;;;;;11.32;4.93;;;;;;;4.86;100.00;93849.41;5026127;28;20029;-88
2022/04/06 04:36:08;;;;;;;12.50;5.13;;;;;;;5.01;100.00;93846.97;5042363;28;20103;-87
2022/04/06 04:38:34;;;;;;;12.63;6.07;;;;;;;5.12;100.00;93847.84;5042396;28;20028;-87
2022/04/06 04:40:59;;;;;;;12.73;5.88;;;;;;;5.07;100.00;93855.59;5042234;28;20028;-88
2022/04/06 04:43:25;;;;;;;11.35;5.75;;;;;;;4.93;100.00;93845.59;5042251;28;20033;-87
2022/04/06 04:45:51;;;;;;;11.70;5.40;;;;;;;4.68;100.00;93846.13;5025465;28;20025;-87
2022/04/06 04:48:18;;;;;;;13.40;5.50;;;;;;;4.44;100.00;93850.75;5060168;28;20032;-87
2022/04/06 04:50:43;;;;;;;10.23;4.68;;;;;;;4.45;100.00;93847.94;5059632;28;20024;-87
2022/04/06 04:53:09;;;;;;;12.55;5.07;;;;;;;4.28;100.00;93845.38;5044864;28;20037;-88
2022/04/06 04:55:35;;;;;;;10.70;5.50;;;;;;;4.28;100.00;93847.19;5058580;28;20029;-88
2022/04/06 04:58:02;;;;;;;9.18;4.47;;;;;;;4.62;100.00;93853.06;5059745;28;20453;-87
2022/04/06 05:00:27;;;;;;;7.22;3.92;;;;;;;4.70;100.00;93854.44;5041884;28;20036;-88
2022/04/06 05:02:53;;;;;;;9.85;4.60;;;;;;;4.49;100.00;93856.78;5041980;28;20346;-87
2022/04/06 05:05:19;;;;;;;11.05;3.85;;;;;;;4.42;100.00;93856.19;5059341;28;20455;-87
2022/04/06 05:07:44;;;;;;;9.00;4.53;;;;;;;4.46;100.00;93867.66;5058413;28;20040;-88
2022/04/06 05:10:10;;;;;;;8.40;4.60;;;;;;;4.48;100.00;93867.41;5058352;28;20025;-86
2022/04/06 05:12:36;;;;;;;13.52;4.70;;;;;;;4.51;100.00;93865.09;5058368;28;20047;-88
2022/04/06 05:15:10;;;;;;;11.32;5.13;;;;;;;4.56;100.00;93859.19;5045068;28;20071;-88
2022/04/06 05:17:36;;;;;;;9.57;4.82;;;;;;;4.69;100.00;93857.28;5041713;28;20079;-88
2022/04/06 05:20:02;;;;;;;13.30;4.47;;;;;;;4.77;100.00;93860.22;5041870;28;20029;-87
2022/04/06 05:22:27;;;;;;;8.88;4.40;;;;;;;4.93;100.00;93860.38;5024653;28;20036;-88
2022/04/06 05:24:53;;;;;;;7.95;3.25;;;;;;;5.16;100.00;93856.72;5007750;28;20429;-87
2022/04/06 05:27:19;;;;;;;6.97;3.60;;;;;;;5.45;100.00;93860.88;5025160;28;20025;-87
2022/04/06 05:29:46;;;;;;;8.57;3.10;;;;;;;5.55;100.00;93875.75;5024837;28;20047;-88
2022/04/06 05:32:11;;;;;;;8.68;3.90;;;;;;;5.49;100.00;93870.53;5041558;28;20307;-88
2022/04/06 05:34:36;;;;;;;5.82;3.10;;;;;;;5.55;100.00;93875.75;5041332;28;20036;-88
2022/04/06 05:37:03;;;;;;;6.55;3.22;;;;;;;5.50;100.00;93874.69;5041138;28;20020;-88
2022/04/06 05:39:28;;;;;;;4.70;2.55;;;;;;;5.70;100.00;93877.72;5041129;28;20123;-87
2022/04/06 05:41:54;;;;;;;7.90;3.05;;;;;;;5.59;100.00;93872.44;5040999;28;20033;-88
2022/04/06 05:44:20;;;;;;;6.53;3.05;;;;;;;5.50;100.00;93866.91;5024871;28;20033;-87
2022/04/06 05:46:46;;;;;;;11.40;3.90;;;;;;;5.55;100.00;93871.38;5040955;28;20025;-87
2022/04/06 05:49:12;;;;;;;10.30;4.85;;;;;;;5.65;100.00;93866.22;5024447;28;20029;-87
2022/04/06 05:51:37;;;;;;;9.02;4.28;;;;;;;5.82;100.00;93872.34;5024208;28;20028;-88
2022/04/06 05:54:03;;;;;;;10.60;4.72;;;;;;;5.91;100.00;93868.25;5023842;28;20127;-88
2022/04/06 05:56:29;;;;;;;6.70;3.80;;;;;;;5.98;100.00;93863.59;5024533;28;20025;-88
2022/04/06 05:58:54;;;;;;;5.00;2.95;;;;;;;6.28;100.00;93862.25;5058969;28;20033;-88
2022/04/06 06:01:21;;;;;;;5.30;3.25;;;;;;;6.40;100.00;93866.47;5024323;28;20108;-87
2022/04/06 06:03:46;;;;;;;4.80;3.10;;;;;;;6.47;100.00;93862.59;5039739;28;20118;-87
2022/04/06 06:06:12;;;;;;;5.70;3.28;;;;;;;6.50;100.00;93871.75;5040737;28;20068;-87
2022/04/06 06:08:37;;;;;;;8.45;4.03;;;;;;;6.55;100.00;93868.38;5024440;28;20024;-87
2022/04/06 06:11:03;;;;;;;8.07;4.40;;;;;;;6.45;100.00;93871.69;5024098;28;20033;-87
2022/04/06 06:13:31;;;;;;;7.10;4.22;;;;;;;6.47;100.00;93874.84;5024466;28;20119;-87
2022/04/06 06:15:57;;;;;;;10.38;4.25;;;;;;;6.50;100.00;93876.94;5040412;28;20029;-87
2022/04/06 06:18:24;;;;;;;8.82;4.38;;;;;;;6.46;100.00;93870.69;5024253;28;20033;-87
2022/04/06 06:20:49;;;;;;;10.05;4.82;;;;;;;6.48;100.00;93877.19;5040590;28;20021;-88
2022/04/06 06:23:15;;;;;;;8.07;4.60;;;;;;;6.42;100.00;93874.81;5040304;28;20378;-88
2022/04/06 06:25:40;;;;;;;5.93;3.72;;;;;;;6.46;100.00;93878.50;5040319;28;20036;-88
2022/04/06 06:28:06;;;;;;;6.63;3.80;;;;;;;6.46;100.00;93876.66;5040738;28;20033;-88
2022/04/06 06:30:32;;;;;;;8.18;4.30;;;;;;;6.53;100.00;93880.84;5024024;28;20059;-88
2022/04/06 06:32:57;;;;;;;6.60;3.90;;;;;;;6.63;100.00;93881.69;5023997;28;20025;-87
2022/04/06 06:35:26;;;;;;;10.27;4.05;;;;;;;6.71;100.00;93890.03;5040098;28;20131;-88
2022/04/06 06:37:54;;;;;;;10.52;4.40;;;;;;;6.83;100.00;93880.19;5023209;28;20025;-92
2022/04/06 06:40:21;;;;;;;7.68;4.20;;;;;;;7.17;100.00;93877.19;5040400;28;20029;-91
2022/04/06 06:42:47;;;;;;;10.80;3.97;;;;;;;7.44;100.00;93876.16;5024017;28;20512;-93
2022/04/06 06:45:12;;;;;;;7.47;4.20;;;;;;;7.56;100.00;93872.53;5007946;28;20029;-92
2022/04/06 06:47:40;;;;;;;9.05;4.20;;;;;;;7.62;100.00;93876.72;5040324;28;20032;-90
2022/04/06 06:50:06;;;;;;;8.82;4.05;;;;;;;7.68;100.00;93877.50;5024268;28;20081;-92
2022/04/06 06:52:34;;;;;;;7.13;3.78;;;;;;;7.86;100.00;93868.34;5023656;28;20082;-91
2022/04/06 06:55:01;;;;;;;8.75;3.38;;;;;;;7.92;100.00;93867.31;5024078;28;20025;-92
2022/04/06 06:57:26;;;;;;;6.95;4.18;;;;;;;7.96;100.00;93872.78;5040202;28;20029;-92
2022/04/06 06:59:52;;;;;;;10.57;4.43;;;;;;;8.05;100.00;93866.78;5040003;28;20067;-91
2022/04/06 07:02:17;;;;;;;8.07;3.72;;;;;;;8.20;100.00;93863.38;5023695;28;20029;-91
2022/04/06 07:04:46;;;;;;;7.90;3.72;;;;;;;8.28;100.00;93863.88;5025071;28;20047;-92
2022/04/06 07:07:12;;;;;;;8.95;4.45;;;;;;;8.48;100.00;93870.88;5023841;28;20029;-92
2022/04/06 07:09:38;;;;;;;12.38;5.28;;;;;;;8.45;100.00;93869.56;5023251;28;20044;-92
2022/04/06 07:12:03;;;;;;;14.57;5.53;;;;;;;8.58;100.00;93865.63;5040191;28;20025;-92
2022/04/06 07:17:55;;;;;;;9.25;5.45;;;;;;;8.81;100.00;93863.47;5057608;28;20051;-91
2022/04/06 07:20:29;;;;;;;10.75;5.28;;;;;;;8.94;100.00;93859.50;5023499;28;20421;-92
2022/04/06 07:22:55;;;;;;;9.40;5.18;;;;;;;9.24;100.00;93862.22;5023820;28;20040;-93
2022/04/06 07:25:21;;;;;;;9.85;5.22;;;;;;;9.22;100.00;93854.63;5022983;28;20028;-92
2022/04/06 07:27:46;;;;;;;9.50;5.05;;;;;;;9.18;100.00;93864.06;5040105;28;20036;-91
2022/04/06 07:30:13;;;;;;;13.30;6.50;;;;;;;9.37;100.00;93866.84;5023405;28;20032;-92
2022/04/06 07:32:38;;;;;;;14.50;7.43;;;;;;;9.48;100.00;93859.72;5039860;28;20031;-90
2022/04/06 07:35:05;;;;;;;18.80;7.55;;;;;;;9.65;100.00;93859.34;5022809;28;20028;-93
2022/04/06 07:37:39;;;;;;;15.75;7.72;;;;;;;9.19;100.00;93863.03;5022776;28;20032;-92
2022/04/06 07:40:07;;;;;;;14.35;7.20;;;;;;;9.63;100.00;93864.06;5023037;28;20037;-94
2022/04/06 07:42:35;;;;;;;20.48;9.65;;;;;;;9.57;100.00;93857.28;5039688;28;20039;-91
2022/04/06 07:45:02;;;;;;;28.60;12.88;;;;;;;9.77;100.00;93864.19;5023354;28;20388;-94
2022/04/06 07:47:31;;;;;;;22.23;11.52;;;;;;;9.98;100.00;93859.56;5055699;28;20456;-92
2022/04/06 07:49:58;;;;;;;25.33;13.02;;;;;;;10.17;100.00;93858.88;5022961;28;20450;-93
2022/04/06 07:52:25;;;;;;;26.52;12.65;;;;;;;10.21;100.00;93865.13;5023542;28;20059;-93
2022/04/06 07:58:13;;;;;;;31.02;14.32;;;;;;;10.29;100.00;93859.28;5056981;28;20082;-93
2022/04/06 08:00:39;;;;;;;31.70;13.32;;;;;;;10.32;100.00;93852.72;5038360;28;20060;-93
2022/04/06 08:03:05;;;;;;;22.52;11.38;;;;;;;10.54;100.00;93857.50;5023158;28;20173;-92
2022/04/06 08:05:30;;;;;;;24.80;11.57;;;;;;;10.64;100.00;93855.81;5039308;28;20025;-94
2022/04/06 08:07:56;;;;;;;31.15;13.90;;;;;;;10.59;100.00;93862.66;5023132;28;20050;-94
2022/04/06 08:10:22;;;;;;;25.90;11.30;;;;;;;10.97;100.00;93861.97;5039474;28;20017;-93
2022/04/06 08:12:48;;;;;;;23.70;11.02;;;;;;;11.11;100.00;93858.63;5022973;28;20028;-93
2022/04/06 08:15:15;;;;;;;29.20;12.57;;;;;;;11.32;100.00;93857.31;5022554;28;20438;-93
2022/04/06 08:17:45;;;;;;;26.98;12.63;;;;;;;11.08;100.00;93860.00;5022968;28;20024;-92
2022/04/06 08:20:14;;;;;;;29.05;12.93;;;;;;;11.36;100.00;93869.84;5039364;28;20330;-93
2022/04/06 08:22:44;;;;;;;22.65;10.77;;;;;;;11.55;100.00;93867.22;5021664;28;20045;-94
2022/04/06 08:25:10;;;;;;;23.23;11.55;;;;;;;11.65;100.00;93856.59;5022335;28;20063;-92
2022/04/06 08:27:39;;;;;;;26.40;12.10;;;;;;;11.94;99.35;93855.59;5022781;28;20041;-93
2022/04/06 08:30:08;;;;;;;27.58;12.60;;;;;;;12.00;100.00;93859.69;5039163;28;20077;-94
2022/04/06 08:32:34;;;;;;;28.60;13.40;;;;;;;11.98;100.00;93848.72;5022419;28;20029;-93
2022/04/06 08:35:00;;;;;;;19.40;11.07;;;;;;;11.68;99.06;93857.84;5022778;28;20032;-91
2022/04/06 08:37:25;;;;;;;29.58;11.13;;;;;;;11.87;100.00;93863.84;5022541;28;20025;-92
2022/04/06 08:39:51;;;;;;;21.15;11.05;;;;;;;12.01;100.00;93866.53;5022450;28;20036;-92
2022/04/06 08:42:17;;;;;;;21.17;10.48;;;;;;;12.46;86.96;93869.72;5039078;28;20036;-93
2022/04/06 08:48:07;;;;;;;18.88;10.10;;;;;;;12.42;88.46;93872.16;5056524;28;20035;-94
2022/04/06 08:50:34;;;;;;;18.63;9.68;;;;;;;12.94;85.10;93865.94;5038723;28;20017;-93
2022/04/06 08:53:00;;;;;;;19.55;9.98;;;;;;;12.78;87.11;93868.06;5022352;28;20024;-94
2022/04/06 08:55:25;;;;;;;16.65;9.35;;;;;;;12.94;84.52;93871.94;5038111;28;20059;-93
2022/04/06 08:57:51;;;;;;;14.88;8.63;;;;;;;13.49;87.33;93866.94;5022062;28;20025;-93
2022/04/06 09:00:18;;;;;;;17.70;9.10;;;;;;;13.54;76.16;93878.09;5024024;28;20028;-94
2022/04/06 09:02:45;;;;;;;15.77;9.07;;;;;;;13.71;76.45;93872.19;5042512;28;20063;-92
2022/04/06 09:05:11;;;;;;;15.55;8.38;;;;;;;14.04;77.60;93876.44;5042085;28;20025;-93
2022/04/06 09:07:38;;;;;;;12.15;6.78;;;;;;;14.03;67.00;93872.25;5042211;28;20113;-93
2022/04/06 09:10:05;;;;;;;14.68;7.65;;;;;;;13.84;66.37;93867.97;5025512;28;20098;-93
2022/04/06 09:12:30;;;;;;;8.65;5.22;;;;;;;13.65;55.84;93865.50;5025858;28;20029;-94
2022/04/06 09:15:10;;;;;;;14.80;6.30;;;;;;;13.75;59.11;93863.69;5025720;28;20456;-93
2022/04/06 09:17:50;;;;;;;11.23;5.68;;;;;;;14.22;64.26;93856.25;5042422;28;20033;-93
2022/04/06 09:20:23;;;;;;;14.32;7.85;;;;;;;14.50;66.85;93857.91;5042067;28;20036;-93
2022/04/06 09:22:49;;;;;;;22.33;7.38;;;;;;;14.99;66.01;93868.47;5041995;28;20036;-92
2022/04/06 09:25:16;;;;;;;10.80;6.22;;;;;;;14.49;60.54;93862.41;5042040;28;20020;-94
2022/04/06 09:27:43;;;;;;;9.07;4.50;;;;;;;14.49;52.59;93857.16;5025741;28;20035;-92
2022/04/06 09:30:10;;;;;;;11.75;5.07;;;;;;;14.14;59.72;93856.97;5025700;28;20079;-93
2022/04/06 09:32:35;;;;;;;12.32;5.70;;;;;;;14.05;58.11;93850.84;5041900;28;20053;-91
2022/04/06 09:35:01;;;;;;;11.75;5.95;;;;;;;13.82;58.57;93856.94;5025391;28;20366;-92
2022/04/06 09:37:28;;;;;;;12.02;6.72;;;;;;;13.30;60.33;93846.75;5025401;28;20047;-93
2022/04/06 09:39:56;;;;;;;14.23;6.97;;;;;;;13.28;62.86;93844.44;5042086;28;20421;-92
2022/04/06 09:42:28;;;;;;;15.32;8.02;;;;;;;13.04;59.39;93843.91;5025158;28;20120;-92
2022/04/06 09:47:40;;;;;;;11.02;5.78;;;;;;;13.27;60.13;93831.56;5044135;28;20032;-93
2022/04/06 09:50:09;;;;;;;11.82;6.15;;;;;;;13.02;62.21;93820.53;5025065;28;20029;-92
2022/04/06 09:52:36;;;;;;;13.18;7.13;;;;;;;12.53;60.30;93828.84;5041258;28;20119;-92
2022/04/06 09:55:06;;;;;;;14.32;7.15;;;;;;;12.80;58.04;93834.38;5024637;28;20071;-91
2022/04/06 09:57:52;;;;;;;15.98;8.45;;;;;;;12.41;65.15;93828.56;5041384;28;20032;-92
2022/04/06 10:00:20;;;;;;;16.98;8.55;;;;;;;12.43;64.86;93831.66;5025743;28;20430;-92
2022/04/06 10:02:57;;;;;;;12.60;7.07;;;;;;;13.04;64.00;93834.16;5024848;28;20260;-92
2022/04/06 10:05:23;;;;;;;17.17;9.23;;;;;;;13.28;63.12;93833.91;5041066;28;20438;-94
2022/04/06 10:07:51;;;;;;;15.75;9.23;;;;;;;13.81;67.65;93823.00;5024601;28;20090;-93
2022/04/06 10:10:17;;;;;;;20.05;10.23;;;;;;;14.46;65.13;93822.72;5024960;28;20032;-94
2022/04/06 10:12:43;;;;;;;20.77;11.00;;;;;;;14.08;64.00;93816.03;5040918;28;20024;-91
2022/04/06 10:15:09;;;;;;;13.63;6.90;;;;;;;14.39;57.81;93821.28;5040885;28;20028;-93
2022/04/06 10:17:35;;;;;;;12.85;7.22;;;;;;;14.74;55.39;93819.88;5024129;28;20099;-94
2022/04/06 10:20:12;;;;;;;16.65;9.30;;;;;;;14.57;61.98;93810.81;5040851;28;20047;-92
2022/04/06 10:23:02;;;;;;;18.60;10.30;;;;;;;14.65;57.35;93806.66;5024292;28;20052;-94
2022/04/06 10:25:32;;;;;;;13.60;6.40;;;;;;;14.06;55.75;93791.84;5024250;28;20143;-91
2022/04/06 10:27:58;;;;;;;20.15;11.38;;;;;;;14.11;64.45;93799.63;5058592;28;20028;-92
2022/04/06 10:30:26;;;;;;;28.33;14.73;;;;;;;13.84;64.32;93790.81;5024384;28;20026;-93
2022/04/06 10:32:53;;;;;;;18.85;9.90;;;;;;;14.11;62.87;93794.34;5040914;28;20025;-93
2022/04/06 10:35:32;;;;;;;27.23;13.85;;;;;;;14.21;62.43;93785.41;5024078;28;20029;-94
2022/04/06 10:38:00;;;;;;;28.02;14.95;;;;;;;14.23;73.49;93786.66;5040747;28;20067;-94
2022/04/06 10:40:47;;;;;;;20.90;11.27;;;;;;;13.89;61.69;93789.91;5040397;28;20025;-92
2022/04/06 10:43:35;;;;;;;27.67;14.90;;;;;;;14.02;65.22;93788.25;5023827;28;20048;-93
2022/04/06 10:46:01;;;;;;;17.85;9.93;;;;;;;14.24;63.15;93776.88;5040757;28;20025;-92
2022/04/06 10:48:27;;;;;;;18.73;10.50;;;;;;;14.65;66.24;93780.28;5040640;28;20029;-93
2022/04/06 10:50:53;;;;;;;19.67;11.23;;;;;;;14.52;76.26;93774.81;5024134;28;20329;-92
2022/04/06 10:53:19;;;;;;;17.95;8.90;;;;;;;14.76;60.94;93763.09;5023940;28;20033;-91
2022/04/06 10:56:12;;;;;;;15.68;8.57;;;;;;;14.80;58.27;93764.03;5040457;28;20033;-92
2022/04/06 10:59:07;;;;;;;25.50;13.70;;;;;;;14.44;70.31;93762.38;5024677;28;20021;-93
2022/04/06 11:01:38;;;;;;;19.23;13.20;;;;;;;14.10;63.64;93755.94;5022059;28;20072;-93
2022/04/06 11:04:20;;;;;;;29.02;15.13;;;;;;;13.87;68.22;93755.97;5040689;28;20035;-92
2022/04/06 11:07:03;;;;;;;19.60;10.00;;;;;;;14.12;64.52;93753.75;5023598;28;20021;-92
2022/04/06 11:12:37;;;;;;;22.25;10.75;;;;;;;14.13;62.58;93745.56;5042558;28;20472;-91
2022/04/06 11:15:03;;;;;;;15.82;10.48;;;;;;;14.32;60.22;93736.63;5022625;28;20132;-93
2022/04/06 11:17:34;;;;;;;29.65;16.67;;;;;;;14.35;69.57;93740.53;5039865;28;20465;-92
2022/04/06 11:20:03;;;;;;;26.58;15.30;;;;;;;13.83;66.95;93740.00;5040219;28;20056;-93
2022/04/06 11:22:29;;;;;;;28.33;17.52;;;;;;;13.46;74.44;93728.03;5022575;28;20075;-91
2022/04/06 11:24:55;;;;;;;38.42;20.95;;;;;;;13.52;83.91;93727.59;5023440;28;20346;-93
2022/04/06 11:27:32;;;;;;;25.17;15.50;;;;;;;13.39;70.46;93726.59;5039509;28;20087;-92
2022/04/06 11:30:03;;;;;;;35.42;19.45;;;;;;;13.26;76.76;93722.94;5023452;28;20063;-93
2022/04/06 11:32:29;;;;;;;26.73;16.42;;;;;;;13.34;75.97;93720.66;5023241;28;20021;-91
2022/04/06 11:35:05;;;;;;;28.15;17.00;;;;;;;13.49;72.36;93722.19;5023176;28;20530;-91
2022/04/06 11:37:31;;;;;;;28.52;14.68;;;;;;;13.79;68.03;93718.00;5023905;28;20055;-92
2022/04/06 11:39:58;;;;;;;25.80;15.77;;;;;;;13.48;69.71;93715.34;5022746;28;20036;-92
2022/04/06 11:42:24;;;;;;;32.13;18.17;;;;;;;13.80;73.64;93719.53;5039429;28;20390;-92
2022/04/06 11:44:49;;;;;;;35.90;19.67;;;;;;;14.02;78.21;93715.31;5039331;28;20063;-93
2022/04/06 11:47:15;;;;;;;32.22;19.48;;;;;;;14.26;85.21;93719.38;5022703;28;20075;-92
2022/04/06 11:49:41;;;;;;;32.42;21.33;;;;;;;13.89;80.81;93714.31;5039488;28;20037;-91
2022/04/06 11:52:07;;;;;;;37.17;20.90;;;;;;;13.25;79.16;93702.97;5023268;28;20036;-92
2022/04/06 11:55:04;;;;;;;36.95;22.60;;;;;;;13.00;89.84;93704.34;5022854;28;20035;-93
2022/04/06 11:57:34;;;;;;;43.28;23.38;;;;;;;13.12;89.50;93709.06;5039562;28;20048;-92
2022/04/06 12:00:00;;;;;;;37.15;23.05;;;;;;;13.55;100.00;93707.81;5022906;28;20056;-93
2022/04/06 12:02:26;;;;;;;34.65;21.52;;;;;;;14.06;99.57;93705.72;5022736;28;20540;-92
2022/04/06 12:05:02;;;;;;;41.72;23.08;;;;;;;14.45;91.17;93700.69;5039224;28;20041;-94
2022/04/06 12:07:28;;;;;;;44.72;24.42;;;;;;;14.47;84.69;93701.16;5039037;28;20033;-93
2022/04/06 12:09:53;;;;;;;37.63;24.33;;;;;;;14.32;91.09;93691.84;5023063;28;20055;-92
2022/04/06 12:12:19;;;;;;;39.50;22.77;;;;;;;14.22;79.36;93690.28;5022410;28;20028;-94
2022/04/06 12:14:45;;;;;;;45.47;25.63;;;;;;;14.18;89.75;93699.09;5022308;28;20039;-93
2022/04/06 12:17:13;;;;;;;42.25;25.20;;;;;;;14.66;96.44;93689.56;5022365;28;20076;-94
2022/04/06 12:19:39;;;;;;;44.20;25.88;;;;;;;14.82;98.81;93685.41;5022719;28;20039;-94
2022/04/06 12:22:11;;;;;;;44.03;26.33;;;;;;;14.59;93.63;93678.69;5021899;28;20037;-93
2022/04/06 12:24:41;;;;;;;40.95;25.70;;;;;;;15.01;96.23;93673.00;5023247;28;20033;-92
2022/04/06 12:27:07;;;;;;;41.08;26.02;;;;;;;15.12;86.18;93674.19;5022345;28;20033;-92
2022/04/06 12:29:35;;;;;;;46.17;27.75;;;;;;;14.18;94.25;93662.97;5022484;28;20168;-93
2022/04/06 12:32:00;;;;;;;44.33;26.95;;;;;;;13.95;100.00;93673.63;5022839;28;20037;-94
2022/04/06 12:34:40;;;;;;;48.95;27.75;;;;;;;13.93;100.00;93672.34;5022434;28;20036;-93
2022/04/06 12:39:54;;;;;;;48.22;28.15;;;;;;;14.75;91.90;93653.44;5045311;28;20036;-94
2022/04/06 12:42:21;;;;;;;51.90;28.80;;;;;;;15.36;88.49;93662.38;5026453;28;20033;-91
2022/04/06 12:45:06;;;;;;;51.22;30.13;;;;;;;15.23;87.60;93646.41;5025760;28;20507;-94
2022/04/06 12:47:31;;;;;;;48.55;30.23;;;;;;;14.76;86.81;93638.41;5026885;28;20085;-92
2022/04/06 12:50:20;;;;;;;49.90;30.00;;;;;;;14.92;100.00;93638.69;5025749;28;20120;-92
2022/04/06 12:53:01;;;;;;;48.50;31.60;;;;;;;15.38;100.00;93631.94;5035974;28;20029;-92
2022/04/06 12:55:26;;;;;;;50.78;30.90;;;;;;;15.60;87.19;93632.03;5042563;28;20406;-92
2022/04/06 12:58:20;;;;;;;50.92;31.05;;;;;;;15.65;88.61;93624.69;5042708;28;20035;-92
2022/04/06 13:00:56;;;;;;;46.33;27.92;;;;;;;15.71;83.08;93621.88;5042586;28;20031;-91
2022/04/06 13:03:22;;;;;;;49.40;29.40;;;;;;;16.42;80.54;93619.63;5042804;28;20346;-95
2022/04/06 13:05:48;;;;;;;48.55;30.05;;;;;;;16.09;75.72;93615.81;5058733;28;20037;-92
2022/04/06 13:08:35;;;;;;;46.78;30.20;;;;;;;16.24;85.03;93611.81;5058160;28;20048;-92
2022/04/06 13:11:02;;;;;;;48.17;30.73;;;;;;;15.55;75.83;93615.25;5022293;28;20175;-91